Time;durP1;ratioP1;P1;durP2;ratioP2;P2;SDS_P1;SDS_P2;PMS_P1;PMS_P2;Temp;Humidity;BMP_temperature;BMP_pressure;BME280_temperature;BME280_humidity;BME280_pressure;Samples;Min_cycle;Max_cycle;Signal;HPM_P1;HPM_P2
2022/01/16 00:04:11;;;;;;;24.63;15.93;;;;;;;2.85;80.08;100660.72;4979577;28;20051;-55
2022/01/16 00:06:43;;;;;;;26.17;17.40;;;;;;;2.83;79.87;100683.66;5016297;28;20045;-55
2022/01/16 00:09:13;;;;;;;22.15;16.83;;;;;;;2.84;79.85;100710.16;5016178;28;20133;-56
2022/01/16 00:11:44;;;;;;;27.60;16.10;;;;;;;2.83;80.32;100713.50;4998409;28;20421;-56
2022/01/16 00:14:13;;;;;;;25.48;16.58;;;;;;;2.83;80.03;100703.28;4982430;28;20101;-55
2022/01/16 00:16:41;;;;;;;27.13;17.55;;;;;;;2.82;80.07;100688.69;5016034;28;20129;-55
2022/01/16 00:19:12;;;;;;;23.40;16.75;;;;;;;2.83;79.69;100693.03;4998463;28;20068;-55
2022/01/16 00:21:41;;;;;;;26.58;18.02;;;;;;;2.83;80.24;100687.91;4981921;28;20052;-55
2022/01/16 00:24:10;;;;;;;24.48;17.00;;;;;;;2.84;79.75;100692.25;4999268;28;20551;-55
2022/01/16 00:26:40;;;;;;;29.35;18.48;;;;;;;2.83;80.07;100696.47;5015925;28;20025;-55
2022/01/16 00:29:09;;;;;;;34.60;20.80;;;;;;;2.80;80.37;100686.06;4982247;28;20117;-55
2022/01/16 00:31:37;;;;;;;26.95;19.45;;;;;;;2.82;80.39;100693.81;4982036;28;20041;-56
2022/01/16 00:34:04;;;;;;;28.33;18.15;;;;;;;2.79;80.27;100689.41;5015576;28;20046;-55
2022/01/16 00:36:30;;;;;;;28.05;19.95;;;;;;;2.80;80.12;100692.84;5015700;28;20041;-55
2022/01/16 00:39:01;;;;;;;29.48;20.63;;;;;;;2.79;80.14;100694.53;4997815;28;20057;-56
2022/01/16 00:41:34;;;;;;;30.90;19.48;;;;;;;2.81;80.10;100703.16;5015289;28;20611;-57
2022/01/16 00:44:02;;;;;;;30.25;20.30;;;;;;;2.84;80.34;100697.34;5015634;28;20096;-55
2022/01/16 00:46:28;;;;;;;30.42;21.48;;;;;;;2.83;80.27;100686.22;4997966;28;20072;-53
2022/01/16 00:48:54;;;;;;;32.17;22.35;;;;;;;2.84;80.23;100707.59;4997882;28;20029;-55
2022/01/16 00:51:23;;;;;;;35.50;22.80;;;;;;;2.83;80.17;100704.13;4997368;28;20056;-55
2022/01/16 00:53:49;;;;;;;43.15;24.98;;;;;;;2.83;80.42;100675.97;4997574;28;20034;-55
2022/01/16 00:56:21;;;;;;;36.20;23.05;;;;;;;2.84;80.11;100682.88;5015505;28;20034;-55
2022/01/16 00:58:47;;;;;;;39.85;25.75;;;;;;;2.85;80.59;100671.84;5015153;28;20203;-55
2022/01/16 01:01:12;;;;;;;41.53;25.58;;;;;;;2.86;80.19;100682.97;5014998;28;20133;-55
2022/01/16 01:03:43;;;;;;;35.78;24.63;;;;;;;2.87;79.82;100659.13;4997709;28;20558;-55
2022/01/16 01:06:09;;;;;;;40.13;25.42;;;;;;;2.86;80.11;100678.72;4997658;28;20091;-54
2022/01/16 01:08:38;;;;;;;46.00;28.30;;;;;;;2.86;79.99;100680.41;5015002;28;20034;-55
2022/01/16 01:11:08;;;;;;;49.00;30.77;;;;;;;2.84;79.85;100682.88;5015452;28;20034;-55
2022/01/16 01:16:21;;;;;;;35.22;24.55;;;;;;;2.84;80.02;100680.31;5015010;28;20030;-55
2022/01/16 01:18:52;;;;;;;40.20;26.98;;;;;;;2.84;80.02;100677.75;5014783;28;20045;-55
2022/01/16 01:21:28;;;;;;;47.17;31.85;;;;;;;2.84;80.13;100680.31;4981418;28;20042;-55
2022/01/16 01:24:01;;;;;;;50.33;28.80;;;;;;;2.84;80.07;100690.53;4997462;28;20038;-55
2022/01/16 01:26:34;;;;;;;46.90;28.35;;;;;;;2.84;79.97;100695.66;4980403;28;20037;-55
2022/01/16 01:28:59;;;;;;;48.40;29.02;;;;;;;2.83;80.08;100688.78;4981514;28;20038;-55
2022/01/16 01:31:31;;;;;;;42.75;27.23;;;;;;;2.82;80.17;100663.97;4997314;28;20052;-55
2022/01/16 01:33:57;;;;;;;43.70;27.02;;;;;;;2.84;80.21;100615.44;4981118;28;20065;-55
2022/01/16 01:36:28;;;;;;;45.92;26.95;;;;;;;2.81;79.91;100602.44;4997194;28;20396;-56
2022/01/16 01:38:56;;;;;;;48.83;30.13;;;;;;;2.81;79.68;100594.78;5014453;28;20385;-55
2022/01/16 01:41:21;;;;;;;41.05;27.77;;;;;;;2.79;80.09;100591.25;5014298;28;20064;-55
2022/01/16 01:52:02;;;;;;;43.67;28.80;;;;;;;2.75;80.11;100643.94;5014225;28;20433;-55
2022/01/16 01:54:30;;;;;;;40.78;26.38;;;;;;;2.77;80.16;100672.19;5014247;28;20092;-56
2022/01/16 01:57:02;;;;;;;45.75;30.35;;;;;;;2.77;80.31;100667.97;4996604;28;20444;-55
2022/01/16 01:59:28;;;;;;;46.97;29.73;;;;;;;2.77;80.26;100656.81;4996689;28;20033;-56
2022/01/16 02:01:56;;;;;;;46.42;29.67;;;;;;;2.76;80.30;100665.28;4995842;28;20042;-55
2022/01/16 02:04:25;;;;;;;49.28;30.13;;;;;;;2.76;80.21;100678.09;5014447;28;20048;-55
2022/01/16 02:06:50;;;;;;;46.08;28.25;;;;;;;2.74;79.45;100678.88;5013896;28;20493;-54
2022/01/16 02:09:25;;;;;;;48.53;29.13;;;;;;;2.74;79.61;100684.00;5014301;28;20037;-55
2022/01/16 02:11:54;;;;;;;46.22;27.13;;;;;;;2.73;80.11;100692.47;4980307;28;20128;-55
2022/01/16 02:14:28;;;;;;;45.10;28.88;;;;;;;2.71;79.80;100695.75;5013828;28;20030;-56
2022/01/16 02:28:17;;;;;;;46.80;28.20;;;;;;;2.67;80.08;100673.31;5013681;28;20033;-55
2022/01/16 02:35:58;;;;;;;40.95;25.13;;;;;;;2.65;80.23;100685.19;4996576;28;20033;-55
2022/01/16 02:38:24;;;;;;;43.30;26.42;;;;;;;2.65;79.81;100696.28;4980210;28;20496;-55
2022/01/16 02:41:01;;;;;;;41.42;26.63;;;;;;;2.64;80.35;100696.22;4980022;28;20037;-55
2022/01/16 02:43:34;;;;;;;43.58;25.60;;;;;;;2.63;79.98;100676.53;4996057;28;20117;-55
2022/01/16 02:48:51;;;;;;;46.08;27.13;;;;;;;2.61;79.97;100667.88;4996135;28;20034;-55
2022/01/16 02:51:19;;;;;;;49.90;28.23;;;;;;;2.61;80.32;100668.75;4996521;28;20092;-55
2022/01/16 02:53:49;;;;;;;42.60;25.88;;;;;;;2.62;80.02;100665.38;4995519;28;20409;-55
2022/01/16 02:56:18;;;;;;;42.15;26.58;;;;;;;2.63;80.13;100667.16;4979849;28;20088;-55
2022/01/16 02:58:45;;;;;;;47.20;29.30;;;;;;;2.63;79.74;100649.25;4996391;28;20367;-55
2022/01/16 03:01:11;;;;;;;46.13;26.83;;;;;;;2.63;79.90;100651.81;4979531;28;20034;-55
2022/01/16 03:03:39;;;;;;;45.67;26.80;;;;;;;2.65;80.23;100647.66;5013059;28;20484;-55
2022/01/16 03:06:10;;;;;;;49.38;28.65;;;;;;;2.65;79.61;100647.66;4996008;28;20034;-55
2022/01/16 03:08:36;;;;;;;48.58;28.48;;;;;;;2.65;79.29;100647.66;4979607;28;20044;-54
2022/01/16 03:11:13;;;;;;;41.10;26.60;;;;;;;2.65;80.14;100649.34;5013352;28;20033;-55
2022/01/16 03:13:49;;;;;;;44.22;26.90;;;;;;;2.64;80.05;100638.22;4997808;28;20034;-55
2022/01/16 03:16:20;;;;;;;43.47;27.73;;;;;;;2.64;79.87;100640.78;4983598;28;20038;-55
2022/01/16 03:24:26;;;;;;;47.25;27.88;;;;;;;2.66;79.82;100634.06;4999827;28;20038;-55
2022/01/16 03:27:12;;;;;;;51.13;30.58;;;;;;;2.66;79.74;100622.94;4983412;28;20045;-55
2022/01/16 03:29:43;;;;;;;49.70;28.92;;;;;;;2.69;80.05;100623.09;5017060;28;20047;-55
2022/01/16 03:32:16;;;;;;;47.20;30.35;;;;;;;2.69;79.62;100625.66;4983354;28;20080;-56
2022/01/16 03:34:45;;;;;;;50.65;30.75;;;;;;;2.68;80.02;100629.91;4999309;28;20371;-55
2022/01/16 03:37:17;;;;;;;47.35;29.92;;;;;;;2.68;79.80;100624.81;4982915;28;20033;-56
2022/01/16 03:39:45;;;;;;;52.08;31.50;;;;;;;2.67;80.36;100615.34;4983105;28;20056;-55
2022/01/16 03:42:11;;;;;;;50.15;30.48;;;;;;;2.68;79.70;100616.22;4982715;28;20034;-55
2022/01/16 03:44:37;;;;;;;48.88;30.55;;;;;;;2.68;79.67;100612.00;5016726;28;20046;-55
2022/01/16 03:47:03;;;;;;;53.70;31.80;;;;;;;2.68;79.57;100609.44;5016614;28;20069;-55
2022/01/16 03:49:30;;;;;;;56.72;34.53;;;;;;;2.70;80.09;100623.22;4982565;28;20100;-56
2022/01/16 03:51:58;;;;;;;54.88;32.53;;;;;;;2.72;79.87;100634.44;4982821;28;20153;-55
2022/01/16 03:54:27;;;;;;;49.28;30.65;;;;;;;2.73;80.01;100630.19;4998935;28;20110;-55
2022/01/16 03:56:59;;;;;;;53.30;32.40;;;;;;;2.72;80.05;100639.53;5016384;28;20464;-55
2022/01/16 03:59:27;;;;;;;57.38;32.28;;;;;;;2.73;79.72;100645.53;5016713;28;20070;-55
2022/01/16 04:01:53;;;;;;;53.08;30.85;;;;;;;2.72;79.94;100649.78;4998560;28;20042;-55
2022/01/16 04:04:19;;;;;;;50.03;31.30;;;;;;;2.72;80.37;100660.03;4999012;28;20048;-55
2022/01/16 04:06:44;;;;;;;53.10;32.90;;;;;;;2.70;79.82;100646.25;4998662;28;20037;-56
2022/01/16 04:09:15;;;;;;;54.45;32.08;;;;;;;2.70;80.00;100646.25;5016466;28;20037;-55
2022/01/16 04:11:50;;;;;;;51.10;31.85;;;;;;;2.70;79.70;100646.25;5015922;28;20083;-56
2022/01/16 04:14:24;;;;;;;52.85;32.35;;;;;;;2.71;79.85;100647.13;5016092;28;20073;-55
2022/01/16 04:16:53;;;;;;;53.08;33.88;;;;;;;2.70;80.04;100648.81;4982960;28;20037;-55
2022/01/16 04:19:27;;;;;;;51.78;31.88;;;;;;;2.70;79.88;100651.38;4998521;28;20433;-55
2022/01/16 04:21:52;;;;;;;55.58;33.35;;;;;;;2.70;79.72;100637.66;4982335;28;20042;-56
2022/01/16 04:24:18;;;;;;;51.67;32.50;;;;;;;2.70;79.86;100642.78;5015719;28;20030;-55
2022/01/16 04:26:51;;;;;;;53.28;32.63;;;;;;;2.70;80.15;100646.25;5015918;28;20038;-56
2022/01/16 04:29:16;;;;;;;51.40;32.77;;;;;;;2.71;79.72;100644.56;5016031;28;20045;-57
2022/01/16 04:31:44;;;;;;;54.05;34.25;;;;;;;2.71;79.81;100639.44;5015728;28;20288;-55
2022/01/16 04:34:10;;;;;;;55.10;33.85;;;;;;;2.71;80.07;100652.25;5015558;28;20037;-56
2022/01/16 04:36:38;;;;;;;48.83;32.03;;;;;;;2.71;80.35;100655.69;5015480;28;20037;-55
2022/01/16 04:39:13;;;;;;;51.58;32.30;;;;;;;2.71;79.48;100660.81;4982004;28;20030;-55
2022/01/16 04:44:26;;;;;;;63.92;34.92;;;;;;;2.72;79.60;100660.03;5015552;28;20131;-55
2022/01/16 04:46:55;;;;;;;53.60;32.83;;;;;;;2.72;79.82;100660.03;5015469;28;20481;-56
2022/01/16 04:49:20;;;;;;;54.65;34.03;;;;;;;2.72;79.86;100656.56;4997903;28;20050;-56
2022/01/16 04:51:51;;;;;;;50.10;30.77;;;;;;;2.71;80.16;100653.13;4981665;28;20556;-55
2022/01/16 04:54:18;;;;;;;49.72;31.33;;;;;;;2.71;79.89;100655.69;5015278;28;20061;-55
2022/01/16 04:56:43;;;;;;;54.42;34.67;;;;;;;2.71;79.80;100650.59;5015385;28;20037;-56
2022/01/16 04:59:13;;;;;;;56.50;33.97;;;;;;;2.72;80.03;100659.13;5015343;28;20056;-53
2022/01/16 05:01:44;;;;;;;51.92;32.05;;;;;;;2.74;80.33;100667.78;4997303;28;20100;-56
2022/01/16 05:04:10;;;;;;;51.80;33.03;;;;;;;2.74;79.55;100653.28;4981696;28;20042;-55
2022/01/16 05:06:38;;;;;;;53.58;34.83;;;;;;;2.74;79.83;100662.66;4998067;28;20041;-56
2022/01/16 05:09:10;;;;;;;57.42;35.08;;;;;;;2.74;80.04;100654.97;4981521;28;20069;-56
2022/01/16 05:11:40;;;;;;;54.72;33.22;;;;;;;2.76;79.96;100667.84;4998120;28;20034;-55
2022/01/16 05:16:41;;;;;;;51.20;31.63;;;;;;;2.76;79.65;100665.28;4997354;28;20551;-56
2022/01/16 05:19:11;;;;;;;49.17;32.63;;;;;;;2.75;80.14;100659.31;4997354;28;20053;-55
2022/01/16 05:21:37;;;;;;;54.38;33.47;;;;;;;2.74;79.85;100662.66;4997400;28;20110;-55
2022/01/16 05:24:11;;;;;;;57.65;36.85;;;;;;;2.73;79.96;100663.44;4980907;28;20041;-56
2022/01/16 05:26:43;;;;;;;53.85;33.28;;;;;;;2.72;80.01;100667.72;5014644;28;20038;-55
2022/01/16 05:29:15;;;;;;;53.47;35.08;;;;;;;2.73;80.32;100682.25;4997282;28;20030;-55
2022/01/16 05:31:45;;;;;;;58.50;34.63;;;;;;;2.71;79.63;100675.28;4981305;28;20042;-56
2022/01/16 05:34:12;;;;;;;57.22;34.78;;;;;;;2.70;80.07;100679.53;4997389;28;20482;-55
2022/01/16 05:36:41;;;;;;;58.00;34.25;;;;;;;2.69;80.14;100675.19;4980398;28;20421;-55
2022/01/16 05:39:11;;;;;;;60.67;36.47;;;;;;;2.68;79.82;100670.88;4980828;28;20379;-55
2022/01/16 05:41:42;;;;;;;58.08;35.20;;;;;;;2.70;79.83;100666.72;5014246;28;20048;-55
2022/01/16 05:44:07;;;;;;;59.70;33.72;;;;;;;2.69;80.04;100672.63;4981198;28;20084;-55
2022/01/16 05:46:32;;;;;;;58.80;35.97;;;;;;;2.69;79.99;100672.63;5014625;28;20442;-55
2022/01/16 05:48:58;;;;;;;54.65;34.22;;;;;;;2.69;80.15;100672.63;4996773;28;20038;-55
2022/01/16 05:51:23;;;;;;;57.30;34.55;;;;;;;2.70;80.13;100673.50;5014212;28;20378;-54
2022/01/16 05:53:51;;;;;;;58.63;33.33;;;;;;;2.69;80.04;100669.19;5014097;28;20034;-55
2022/01/16 05:56:17;;;;;;;57.63;33.20;;;;;;;2.69;80.02;100681.97;4980426;28;20042;-55
2022/01/16 05:58:42;;;;;;;57.85;35.10;;;;;;;2.69;79.96;100680.31;4980533;28;20042;-55
2022/01/16 06:01:08;;;;;;;54.78;34.60;;;;;;;2.68;79.72;100676.00;5014107;28;20096;-54
2022/01/16 06:03:37;;;;;;;62.65;35.17;;;;;;;2.68;79.79;100676.00;4980469;28;20037;-55
2022/01/16 06:06:03;;;;;;;56.80;33.30;;;;;;;2.69;80.19;100675.19;4996361;28;20124;-55
2022/01/16 06:08:30;;;;;;;59.28;34.67;;;;;;;2.69;79.71;100674.31;5013890;28;20076;-56
2022/01/16 06:11:01;;;;;;;57.63;34.55;;;;;;;2.68;80.00;100687.91;4980572;28;20404;-55
2022/01/16 06:13:29;;;;;;;55.60;35.47;;;;;;;2.69;80.09;100687.09;5014208;28;20542;-55
2022/01/16 06:15:57;;;;;;;60.92;37.22;;;;;;;2.69;80.28;100692.22;5013568;28;20516;-55
2022/01/16 06:18:23;;;;;;;59.38;34.35;;;;;;;2.68;80.36;100693.91;4980204;28;20060;-55
2022/01/16 06:20:50;;;;;;;61.53;35.97;;;;;;;2.69;80.02;100699.91;5013951;28;20124;-55
2022/01/16 06:23:16;;;;;;;61.08;35.95;;;;;;;2.68;79.96;100698.13;5013529;28;20041;-56
2022/01/16 06:25:54;;;;;;;60.63;36.53;;;;;;;2.68;80.00;100704.16;4980075;28;20153;-55
2022/01/16 06:28:24;;;;;;;60.45;36.20;;;;;;;2.66;80.08;100713.41;4980128;28;20448;-54
2022/01/16 06:30:56;;;;;;;59.55;34.35;;;;;;;2.66;80.12;100718.53;4996400;28;20493;-55
2022/01/16 06:33:24;;;;;;;53.60;33.80;;;;;;;2.66;79.91;100721.09;4979923;28;20493;-55
2022/01/16 06:35:52;;;;;;;58.83;36.45;;;;;;;2.67;79.98;100722.84;4995672;28;20050;-55
2022/01/16 06:38:18;;;;;;;60.42;35.42;;;;;;;2.68;80.30;100729.75;5013649;28;20068;-54
2022/01/16 06:40:49;;;;;;;60.33;34.38;;;;;;;2.68;80.00;100728.84;5013625;28;20038;-54
2022/01/16 06:43:19;;;;;;;60.53;33.92;;;;;;;2.68;80.12;100728.84;4980101;28;20088;-54
2022/01/16 06:45:48;;;;;;;63.33;35.55;;;;;;;2.67;79.77;100730.53;4979880;28;20528;-55
2022/01/16 06:48:19;;;;;;;69.70;37.28;;;;;;;2.67;79.91;100732.19;5016344;28;20113;-54
2022/01/16 06:50:47;;;;;;;64.28;37.13;;;;;;;2.67;80.58;100733.09;4984130;28;20030;-55
2022/01/16 06:53:15;;;;;;;66.90;37.20;;;;;;;2.66;80.38;100740.66;5017756;28;20038;-54
2022/01/16 06:55:45;;;;;;;69.30;37.35;;;;;;;2.68;80.42;100750.22;4984181;28;20038;-55
2022/01/16 06:58:16;;;;;;;67.72;38.03;;;;;;;2.67;79.82;100747.56;4983798;28;20088;-54
2022/01/16 07:00:42;;;;;;;69.38;37.83;;;;;;;2.66;80.00;100745.78;4983283;28;20497;-55
2022/01/16 07:03:07;;;;;;;67.78;36.47;;;;;;;2.67;80.49;100747.56;4983660;28;20085;-54
2022/01/16 07:05:35;;;;;;;68.97;36.08;;;;;;;2.67;80.13;100753.56;5017391;28;20516;-55
2022/01/16 07:08:03;;;;;;;68.60;36.95;;;;;;;2.66;80.01;100744.13;5000066;28;20045;-55
2022/01/16 07:10:31;;;;;;;66.88;36.03;;;;;;;2.65;80.61;100744.91;5017226;28;20033;-55
2022/01/16 07:12:59;;;;;;;69.05;36.90;;;;;;;2.68;80.07;100752.78;5017253;28;20045;-55
2022/01/16 07:15:25;;;;;;;75.88;36.75;;;;;;;2.66;80.34;100751.81;5017213;28;20037;-55
2022/01/16 07:17:53;;;;;;;73.22;38.67;;;;;;;2.68;80.54;100759.56;4999601;28;20034;-55
2022/01/16 07:20:21;;;;;;;68.68;35.35;;;;;;;2.68;80.08;100767.25;4983491;28;20026;-56
2022/01/16 07:22:46;;;;;;;65.80;36.78;;;;;;;2.68;80.44;100788.63;5017050;28;20045;-54
2022/01/16 07:25:13;;;;;;;70.43;38.15;;;;;;;2.67;80.03;100781.72;5016907;28;20513;-55
2022/01/16 07:27:45;;;;;;;69.25;38.47;;;;;;;2.68;80.57;100773.25;4983334;28;20062;-55
2022/01/16 07:30:10;;;;;;;71.10;37.40;;;;;;;2.66;80.09;100767.16;4983145;28;20045;-55
2022/01/16 07:32:39;;;;;;;69.13;36.95;;;;;;;2.67;80.38;100781.72;4999215;28;20052;-55
2022/01/16 07:35:07;;;;;;;67.60;37.03;;;;;;;2.68;80.01;100792.84;4999754;28;20029;-55
2022/01/16 07:37:33;;;;;;;69.47;36.72;;;;;;;2.67;80.46;100786.84;5016754;28;20359;-55
2022/01/16 07:39:58;;;;;;;68.68;36.85;;;;;;;2.66;80.48;100792.75;5016670;28;20042;-55
2022/01/16 07:42:24;;;;;;;75.03;38.20;;;;;;;2.67;80.25;100802.22;5016794;28;20129;-55
2022/01/16 07:44:50;;;;;;;76.53;37.17;;;;;;;2.66;80.32;100803.00;5016161;28;20057;-55
2022/01/16 07:47:16;;;;;;;70.47;37.58;;;;;;;2.68;79.91;100821.00;4999989;28;20053;-55
2022/01/16 07:49:43;;;;;;;75.15;38.13;;;;;;;2.68;80.08;100808.19;5016713;28;20038;-55
2022/01/16 07:52:11;;;;;;;75.43;38.88;;;;;;;2.68;80.68;100816.78;5016606;28;20065;-55
2022/01/16 07:54:37;;;;;;;73.80;40.30;;;;;;;2.68;80.36;100821.91;4999007;28;20088;-55
2022/01/16 07:57:04;;;;;;;66.93;35.25;;;;;;;2.67;80.59;100820.13;5016066;28;20037;-55
2022/01/16 07:59:32;;;;;;;82.35;39.80;;;;;;;2.67;80.44;100809.00;5015721;28;20030;-55
2022/01/16 08:02:05;;;;;;;76.50;40.42;;;;;;;2.67;80.47;100819.22;4983157;28;20045;-55
2022/01/16 08:04:30;;;;;;;77.45;38.10;;;;;;;2.66;80.06;100813.25;5016864;28;20038;-55
2022/01/16 08:06:56;;;;;;;80.53;40.40;;;;;;;2.66;80.29;100807.22;5016629;28;20512;-55
2022/01/16 08:09:21;;;;;;;73.97;36.92;;;;;;;2.67;80.02;100817.56;5016288;28;20041;-55
2022/01/16 08:11:49;;;;;;;72.22;37.92;;;;;;;2.66;80.00;100823.47;5016323;28;20048;-55
2022/01/16 08:14:15;;;;;;;70.20;36.53;;;;;;;2.67;80.55;100814.09;4982064;28;20046;-55
2022/01/16 08:16:43;;;;;;;73.75;35.88;;;;;;;2.65;80.46;100811.47;4998638;28;20509;-55
2022/01/16 08:19:11;;;;;;;70.75;37.50;;;;;;;2.65;80.46;100810.59;5015988;28;20034;-55
2022/01/16 08:21:36;;;;;;;79.72;39.60;;;;;;;2.65;80.42;100800.38;4982234;28;20041;-55
2022/01/16 08:24:04;;;;;;;78.20;38.80;;;;;;;2.65;80.48;100808.91;5015850;28;20029;-55
2022/01/16 08:26:33;;;;;;;81.47;38.78;;;;;;;2.65;80.35;100802.91;5015958;28;20065;-54
2022/01/16 08:29:00;;;;;;;74.85;37.72;;;;;;;2.65;80.86;100801.22;4982124;28;20042;-55
2022/01/16 08:31:28;;;;;;;68.65;36.05;;;;;;;2.66;80.35;100807.22;4982494;28;20037;-54
2022/01/16 08:33:54;;;;;;;74.45;38.17;;;;;;;2.67;80.85;100809.00;4998387;28;20049;-54
2022/01/16 08:36:21;;;;;;;71.40;35.30;;;;;;;2.65;79.70;100808.91;4982004;28;20566;-55
2022/01/16 08:38:46;;;;;;;73.47;37.47;;;;;;;2.66;80.17;100808.13;4981880;28;20041;-55
2022/01/16 08:41:12;;;;;;;73.95;36.83;;;;;;;2.66;80.28;100809.78;5015729;28;20026;-55
2022/01/16 08:43:40;;;;;;;68.40;34.55;;;;;;;2.65;80.48;100815.72;5015602;28;20046;-56
2022/01/16 08:46:08;;;;;;;67.32;34.47;;;;;;;2.66;80.37;100817.47;5015427;28;20037;-55
2022/01/16 08:48:34;;;;;;;68.55;34.92;;;;;;;2.66;81.00;100817.47;5015528;28;20037;-55
2022/01/16 08:51:01;;;;;;;66.85;33.38;;;;;;;2.66;80.53;100836.28;5015418;28;20045;-56
2022/01/16 08:53:29;;;;;;;69.63;34.75;;;;;;;2.67;79.76;100835.50;4997995;28;20083;-55
2022/01/16 08:55:55;;;;;;;64.80;34.10;;;;;;;2.67;80.32;100837.16;5015084;28;20060;-54
2022/01/16 08:58:22;;;;;;;65.47;34.55;;;;;;;2.65;80.16;100834.50;4981716;28;20033;-54
2022/01/16 09:00:51;;;;;;;65.93;34.53;;;;;;;2.65;80.49;100837.06;5015339;28;20041;-55
2022/01/16 09:03:21;;;;;;;68.82;37.40;;;;;;;2.67;80.11;100834.59;4981250;28;20058;-55
2022/01/16 09:05:47;;;;;;;62.78;33.13;;;;;;;2.66;80.31;100832.81;4981229;28;20049;-54
2022/01/16 09:08:17;;;;;;;62.92;34.55;;;;;;;2.66;80.73;100843.06;4981516;28;20046;-55
2022/01/16 09:10:43;;;;;;;62.58;33.08;;;;;;;2.67;80.17;100835.50;4980013;28;20117;-55
2022/01/16 09:13:15;;;;;;;58.60;31.90;;;;;;;2.67;80.57;100830.38;4981280;28;20072;-55
2022/01/16 09:15:47;;;;;;;58.38;29.95;;;;;;;2.67;80.32;100832.94;4997745;28;20034;-55
2022/01/16 09:18:14;;;;;;;60.50;32.08;;;;;;;2.67;80.67;100829.47;5014583;28;20041;-55
2022/01/16 09:20:40;;;;;;;60.58;33.00;;;;;;;2.68;80.20;100850.06;5014924;28;20041;-55
2022/01/16 09:23:06;;;;;;;60.15;33.38;;;;;;;2.68;80.53;100851.72;5014797;28;20033;-55
2022/01/16 09:25:31;;;;;;;61.38;32.30;;;;;;;2.68;80.73;100862.84;4997331;28;20074;-55
2022/01/16 09:27:57;;;;;;;66.13;34.40;;;;;;;2.68;80.56;100867.97;5014409;28;20033;-55
2022/01/16 09:30:25;;;;;;;62.45;34.30;;;;;;;2.68;80.30;100880.78;5014391;28;20076;-55
2022/01/16 09:32:51;;;;;;;53.67;32.45;;;;;;;2.70;80.75;100879.19;4997307;28;20482;-55
2022/01/16 09:35:17;;;;;;;58.15;33.08;;;;;;;2.69;80.56;100874.88;5014410;28;20160;-54
2022/01/16 09:37:45;;;;;;;51.92;29.55;;;;;;;2.69;80.61;100876.53;4980822;28;20042;-55
2022/01/16 09:40:16;;;;;;;57.58;29.40;;;;;;;2.69;80.91;100872.31;4980709;28;20091;-55
2022/01/16 09:42:42;;;;;;;60.33;32.05;;;;;;;2.70;80.21;100885.97;4981286;28;20069;-54
2022/01/16 09:45:11;;;;;;;57.15;31.40;;;;;;;2.68;81.04;100890.13;4996784;28;20229;-55
2022/01/16 09:47:43;;;;;;;59.90;30.30;;;;;;;2.68;80.93;100885.00;4996916;28;20402;-55
2022/01/16 09:50:10;;;;;;;53.88;31.67;;;;;;;2.69;80.36;100881.66;4996476;28;20033;-55
2022/01/16 09:52:38;;;;;;;55.05;30.70;;;;;;;2.69;80.19;100882.53;4980602;28;20038;-55
2022/01/16 09:55:05;;;;;;;55.17;30.98;;;;;;;2.69;80.19;100891.88;4980252;28;20030;-55
2022/01/16 09:57:30;;;;;;;58.42;31.90;;;;;;;2.68;80.77;100901.25;4980239;28;20049;-54
2022/01/16 09:59:56;;;;;;;59.47;32.78;;;;;;;2.68;80.53;100897.78;5013858;28;20034;-55
2022/01/16 10:02:21;;;;;;;58.05;32.05;;;;;;;2.67;80.90;100904.59;5014298;28;20469;-54
2022/01/16 10:04:47;;;;;;;48.95;28.27;;;;;;;2.66;80.46;100910.50;5013998;28;20186;-55
2022/01/16 10:07:17;;;;;;;60.70;31.92;;;;;;;2.67;80.25;100902.03;5014398;28;20121;-54
2022/01/16 10:10:09;;;;;;;51.65;29.92;;;;;;;2.68;80.17;100902.91;4980734;28;20037;-54
2022/01/16 10:12:35;;;;;;;57.00;30.88;;;;;;;2.68;80.83;100910.59;4980463;28;20045;-55
2022/01/16 10:15:22;;;;;;;58.20;31.15;;;;;;;2.69;80.99;100914.94;4979983;28;20034;-54
2022/01/16 10:17:52;;;;;;;51.25;30.13;;;;;;;2.69;80.54;100907.25;4980135;28;20042;-54
2022/01/16 10:20:17;;;;;;;58.95;31.52;;;;;;;2.67;80.23;100904.59;4996355;28;20489;-55
2022/01/16 10:22:59;;;;;;;55.03;29.05;;;;;;;2.68;80.78;100908.03;4996041;28;20069;-55
2022/01/16 10:25:44;;;;;;;52.55;29.42;;;;;;;2.68;80.76;100911.50;4979951;28;20053;-54
2022/01/16 10:28:26;;;;;;;55.67;30.90;;;;;;;2.69;80.65;100900.47;4979929;28;20488;-55
2022/01/16 10:31:00;;;;;;;49.75;27.45;;;;;;;2.69;80.29;100904.69;5013471;28;20092;-54
2022/01/16 10:33:32;;;;;;;48.58;26.95;;;;;;;2.68;80.53;100911.50;4996377;28;20042;-54
2022/01/16 10:35:57;;;;;;;52.72;29.20;;;;;;;2.69;81.01;100909.81;4980089;28;20049;-54
2022/01/16 10:38:30;;;;;;;49.30;27.40;;;;;;;2.69;80.74;100918.38;5013637;28;20045;-55
2022/01/16 10:40:58;;;;;;;49.63;29.23;;;;;;;2.69;80.66;100913.28;5013712;28;20041;-55
2022/01/16 10:43:44;;;;;;;49.33;29.10;;;;;;;2.70;80.87;100909.91;4980320;28;20038;-55
2022/01/16 10:46:12;;;;;;;48.60;25.52;;;;;;;2.70;80.47;100907.34;4980022;28;20073;-54
2022/01/16 10:48:39;;;;;;;50.75;26.95;;;;;;;2.70;80.87;100915.03;4995747;28;20057;-54
2022/01/16 10:51:18;;;;;;;50.90;28.85;;;;;;;2.71;80.39;100916.81;4996369;28;20137;-54
2022/01/16 10:53:48;;;;;;;47.63;27.55;;;;;;;2.72;80.85;100917.69;5013635;28;20033;-54
2022/01/16 10:56:16;;;;;;;50.50;27.15;;;;;;;2.69;80.81;100908.16;4995857;28;20042;-55
2022/01/16 10:58:46;;;;;;;49.15;25.02;;;;;;;2.71;80.86;100910.78;5013831;28;20037;-54
2022/01/16 11:01:17;;;;;;;48.55;27.75;;;;;;;2.72;81.05;100915.13;5013040;28;20038;-54
2022/01/16 11:03:48;;;;;;;48.10;26.83;;;;;;;2.72;81.06;100916.03;4996072;28;20070;-54
2022/01/16 11:06:27;;;;;;;52.35;28.40;;;;;;;2.74;80.85;100918.66;4996135;28;20490;-54
2022/01/16 11:09:03;;;;;;;49.55;27.58;;;;;;;2.73;80.96;100922.00;4996292;28;20040;-55
2022/01/16 11:11:34;;;;;;;44.40;26.38;;;;;;;2.74;80.50;100919.53;5013320;28;20053;-54
2022/01/16 11:14:06;;;;;;;36.55;20.92;;;;;;;2.74;80.50;100932.34;4979904;28;20057;-55
2022/01/16 11:16:35;;;;;;;47.63;27.70;;;;;;;2.74;80.89;100927.22;4979537;28;20030;-55
2022/01/16 11:19:09;;;;;;;40.53;23.90;;;;;;;2.76;81.25;100929.88;4979555;28;20038;-55
2022/01/16 11:21:42;;;;;;;45.88;24.58;;;;;;;2.76;81.05;100929.88;5013590;28;20029;-55
2022/01/16 11:26:47;;;;;;;42.97;24.85;;;;;;;2.77;80.50;100921.41;5013565;28;20042;-54
2022/01/16 11:29:13;;;;;;;42.80;25.67;;;;;;;2.78;80.87;100927.41;4979355;28;20506;-54
2022/01/16 11:31:40;;;;;;;42.85;24.63;;;;;;;2.77;80.97;100921.41;4995306;28;20076;-54
2022/01/16 11:34:14;;;;;;;44.10;23.90;;;;;;;2.78;81.03;100929.97;4980412;28;20058;-54
2022/01/16 11:36:41;;;;;;;;;;;;;;;2.77;80.83;100929.09;4983702;28;20041;-54
2022/01/16 11:39:09;;;;;;;45.13;24.83;;;;;;;2.76;80.82;100922.22;4983281;28;19913;-54
2022/01/16 11:41:49;;;;;;;50.00;26.50;;;;;;;2.77;81.24;100917.97;4983043;28;20037;-54
2022/01/16 11:44:30;;;;;;;44.15;22.85;;;;;;;2.77;81.10;100929.09;4983120;28;20096;-54
2022/01/16 11:47:06;;;;;;;44.05;23.20;;;;;;;2.78;80.75;100917.16;4999210;28;20034;-54
2022/01/16 11:49:42;;;;;;;43.75;23.15;;;;;;;2.79;80.93;100922.41;4998905;28;20046;-55
2022/01/16 11:52:18;;;;;;;51.23;25.67;;;;;;;2.79;81.21;100924.06;4999271;28;20037;-54
2022/01/16 11:54:49;;;;;;;42.03;23.35;;;;;;;2.80;81.28;100925.84;4998975;28;20038;-54
2022/01/16 11:57:23;;;;;;;44.93;24.97;;;;;;;2.79;80.67;100921.50;4999486;28;20065;-54
2022/01/16 12:00:06;;;;;;;47.40;24.30;;;;;;;2.79;81.03;100922.41;5016428;28;20299;-54
2022/01/16 12:02:53;;;;;;;44.03;23.75;;;;;;;2.79;81.19;100926.63;5016012;28;20049;-54
2022/01/16 12:05:27;;;;;;;40.08;23.10;;;;;;;2.80;81.01;100921.63;4982832;28;20042;-55
2022/01/16 12:08:19;;;;;;;40.30;23.75;;;;;;;2.81;81.01;100927.59;5016460;28;20096;-54
2022/01/16 12:10:47;;;;;;;42.55;23.10;;;;;;;2.80;81.06;100920.72;4982693;28;20069;-54
2022/01/16 12:13:43;;;;;;;37.58;21.63;;;;;;;2.80;81.27;100924.16;4982704;28;20402;-54